createdAt,value
2023-03-25T00:00:22.664Z,0.3
2023-03-25T00:03:24.627Z,0.4
2023-03-25T00:06:26.623Z,0.3
2023-03-25T00:09:28.574Z,0.4
2023-03-25T00:12:30.517Z,0.4
2023-03-25T00:15:32.578Z,0.5
2023-03-25T00:18:34.466Z,0.3
2023-03-25T00:21:36.439Z,0.3
2023-03-25T00:24:38.382Z,0.3
2023-03-25T00:27:40.422Z,0.3
2023-03-25T00:30:42.322Z,0.4
2023-03-25T00:33:44.300Z,0.4
2023-03-25T00:36:46.222Z,0.3
2023-03-25T00:39:48.199Z,0.5
2023-03-25T00:42:50.379Z,0.3
2023-03-25T00:45:52.245Z,0.5
2023-03-25T00:48:54.057Z,0.3
2023-03-25T00:51:56.072Z,0.3
2023-03-25T00:54:58.334Z,0.4
2023-03-25T00:58:00.332Z,0.4
2023-03-25T01:01:02.281Z,0.2
2023-03-25T01:04:04.271Z,0.5
2023-03-25T01:07:06.219Z,0.4
2023-03-25T01:10:08.198Z,0.5
2023-03-25T01:13:10.167Z,0.5
2023-03-25T01:16:12.089Z,0.3
2023-03-25T01:19:14.086Z,0.4
2023-03-25T01:22:16.030Z,0.4
2023-03-25T01:25:18.025Z,0.4
2023-03-25T01:28:19.967Z,0.3
2023-03-25T01:31:21.931Z,0.4
2023-03-25T01:34:23.879Z,0.4
2023-03-25T01:37:25.848Z,0.3
2023-03-25T01:40:27.820Z,0.4
2023-03-25T01:43:29.795Z,0.3
2023-03-25T01:46:31.845Z,0.4
2023-03-25T01:49:33.772Z,0.5
2023-03-25T01:52:35.716Z,0.3
2023-03-25T01:55:37.703Z,0.5
2023-03-25T01:58:39.631Z,0.5
2023-03-25T02:01:41.594Z,0.5
2023-03-25T02:04:43.557Z,0.4
2023-03-25T02:07:45.565Z,0.7
2023-03-25T02:10:47.485Z,0.3
2023-03-25T02:13:49.453Z,0.5
2023-03-25T02:16:51.413Z,0.5
2023-03-25T02:19:53.387Z,0.7
2023-03-25T02:22:55.356Z,0.6
2023-03-25T02:25:57.364Z,0.8
2023-03-25T02:28:59.305Z,0.5
2023-03-25T02:32:01.289Z,0.7
2023-03-25T02:35:03.238Z,0.6
2023-03-25T02:38:05.198Z,0.8
2023-03-25T02:41:07.160Z,1
2023-03-25T02:44:09.109Z,0.7
2023-03-25T02:47:11.086Z,0.7
2023-03-25T02:50:13.056Z,1
2023-03-25T02:53:15.016Z,1
2023-03-25T02:56:17.029Z,1
2023-03-25T02:59:18.925Z,1
2023-03-25T03:02:20.961Z,0.8
2023-03-25T03:05:22.917Z,1
2023-03-25T03:08:24.831Z,0.6
2023-03-25T03:11:26.812Z,0.8
2023-03-25T03:14:28.791Z,0.8
2023-03-25T03:17:30.758Z,1.1
2023-03-25T03:20:32.716Z,0.8
2023-03-25T03:23:34.685Z,0.8
2023-03-25T03:26:36.628Z,0.6
2023-03-25T03:29:38.597Z,0.8
2023-03-25T03:32:40.602Z,0.8
2023-03-25T03:35:42.526Z,0.6
2023-03-25T03:38:44.473Z,0.7
2023-03-25T03:41:46.422Z,0.6
2023-03-25T03:44:48.386Z,0.9
2023-03-25T03:47:50.372Z,0.6
2023-03-25T03:50:52.313Z,0.7
2023-03-25T03:53:54.303Z,0.7
2023-03-25T03:56:56.255Z,0.6
2023-03-25T03:59:58.214Z,0.6
2023-03-25T04:03:00.267Z,0.6
2023-03-25T04:06:02.183Z,0.6
2023-03-25T04:09:04.151Z,0.6
2023-03-25T04:12:06.112Z,0.6
2023-03-25T04:15:08.065Z,0.5
2023-03-25T04:18:10.045Z,0.6
2023-03-25T04:21:12.003Z,0.7
2023-03-25T04:24:13.964Z,0.7
2023-03-25T04:27:15.932Z,0.6
2023-03-25T04:30:17.895Z,0.7
2023-03-25T04:33:19.867Z,0.7
2023-03-25T04:36:21.819Z,0.7
2023-03-25T04:39:23.819Z,0.7
2023-03-25T04:42:25.769Z,0.6
2023-03-25T04:45:27.806Z,0.7
2023-03-25T04:48:29.882Z,1.2
2023-03-25T04:51:31.646Z,0.8
2023-03-25T04:54:33.628Z,0.6
2023-03-25T04:57:35.570Z,0.9
2023-03-25T05:00:37.559Z,0.7
2023-03-25T05:03:39.494Z,0.8
2023-03-25T05:06:41.551Z,0.7
2023-03-25T05:09:43.452Z,0.8
2023-03-25T05:12:45.393Z,1
2023-03-25T05:15:47.340Z,0.8
2023-03-25T05:18:49.324Z,1.2
2023-03-25T05:21:51.261Z,1
2023-03-25T05:24:53.247Z,0.8
2023-03-25T05:27:55.199Z,1
2023-03-25T05:30:57.140Z,0.8
2023-03-25T05:33:59.140Z,0.9
2023-03-25T05:37:01.133Z,1
2023-03-25T05:40:03.082Z,0.8
2023-03-25T05:43:05.042Z,1.1
2023-03-25T05:46:07.020Z,1.2
2023-03-25T05:49:08.999Z,1
2023-03-25T05:52:11.006Z,1.1
2023-03-25T05:55:12.910Z,1.1
2023-03-25T05:58:14.921Z,1.5
2023-03-25T06:01:25.794Z,1.4
2023-03-25T06:04:18.827Z,1.2
2023-03-25T06:07:20.766Z,1.3
2023-03-25T06:10:22.740Z,1.1
2023-03-25T06:13:24.714Z,0.9
2023-03-25T06:16:26.691Z,1
2023-03-25T06:19:28.669Z,1.1
2023-03-25T06:22:30.659Z,1.4
2023-03-25T06:25:32.618Z,1
2023-03-25T06:28:34.574Z,1
2023-03-25T06:31:36.562Z,0.9
2023-03-25T06:34:38.501Z,0.9
2023-03-25T06:37:40.475Z,0.8
2023-03-25T06:40:42.429Z,0.8
2023-03-25T06:43:44.384Z,0.6
2023-03-25T06:46:46.459Z,0.8
2023-03-25T06:49:48.291Z,0.6
2023-03-25T06:52:50.280Z,0.9
2023-03-25T06:55:52.418Z,0.7
2023-03-25T06:58:54.235Z,0.7
2023-03-25T07:01:56.241Z,0.7
2023-03-25T07:04:58.175Z,0.6
2023-03-25T07:08:00.144Z,0.8
2023-03-25T07:11:02.078Z,1
2023-03-25T07:14:04.078Z,1.1
2023-03-25T07:17:06.020Z,1.4
2023-03-25T07:20:09.561Z,0.9
2023-03-25T07:23:09.962Z,0.7
2023-03-25T07:26:11.992Z,1.2
2023-03-25T07:29:13.876Z,1.2
2023-03-25T07:32:15.849Z,1
2023-03-25T07:35:17.884Z,1.3
2023-03-25T07:38:19.782Z,1.1
2023-03-25T07:41:21.759Z,1.1
2023-03-25T07:44:23.710Z,1.1
2023-03-25T07:47:25.680Z,1.4
2023-03-25T07:50:27.706Z,0.9
2023-03-25T07:53:29.683Z,1.2
2023-03-25T07:56:31.656Z,1.7
2023-03-25T07:59:33.613Z,1.4
2023-03-25T08:02:35.572Z,1.4
2023-03-25T08:05:37.523Z,1.4
2023-03-25T08:08:39.489Z,1.3
2023-03-25T08:11:41.498Z,1.4
2023-03-25T08:14:43.469Z,1.9
2023-03-25T08:17:45.405Z,1.6
2023-03-25T08:20:47.373Z,1.6
2023-03-25T08:23:49.363Z,1.9
2023-03-25T08:26:51.310Z,1.6
2023-03-25T08:29:53.274Z,1.6
2023-03-25T08:32:55.289Z,1.7
2023-03-25T08:35:57.232Z,1.7
2023-03-25T08:38:59.162Z,1.9
2023-03-25T08:42:01.134Z,1.9
2023-03-25T08:45:03.114Z,1.7
2023-03-25T08:48:05.154Z,2
2023-03-25T08:51:07.069Z,1.7
2023-03-25T08:54:09.035Z,2
2023-03-25T08:57:10.983Z,1.6
2023-03-25T09:00:12.962Z,2.4
2023-03-25T09:03:14.912Z,1.6
2023-03-25T09:06:16.907Z,1.7
2023-03-25T09:09:18.861Z,2
2023-03-25T09:12:20.843Z,2
2023-03-25T09:15:22.815Z,1.6
2023-03-25T09:18:24.763Z,1.6
2023-03-25T09:21:26.733Z,2.2
2023-03-25T09:24:28.699Z,1.8
2023-03-25T09:27:30.658Z,1.5
2023-03-25T09:30:32.651Z,1.9
2023-03-25T09:33:34.600Z,1.8
2023-03-25T09:36:36.563Z,1.7
2023-03-25T09:39:38.551Z,1.9
2023-03-25T09:42:40.478Z,1.6
2023-03-25T09:45:42.449Z,1.7
2023-03-25T09:48:44.409Z,2.2
2023-03-25T09:51:46.382Z,1
2023-03-25T09:54:48.468Z,1.7
2023-03-25T09:57:50.309Z,1
2023-03-25T10:00:52.321Z,0.9
2023-03-25T10:03:54.345Z,0.9
2023-03-25T10:06:56.209Z,0.9
2023-03-25T10:09:58.206Z,0.6
2023-03-25T10:13:00.168Z,0.5
2023-03-25T10:16:02.111Z,0.8
2023-03-25T10:19:04.105Z,0.6
2023-03-25T10:22:06.056Z,0.9
2023-03-25T10:25:08.022Z,0.9
2023-03-25T10:28:09.984Z,1
2023-03-25T10:31:11.978Z,0.9
2023-03-25T10:34:13.932Z,0.7
2023-03-25T10:37:15.899Z,0.6
2023-03-25T10:40:19.170Z,0.6
2023-03-25T10:43:19.840Z,0.5
2023-03-25T10:46:21.825Z,0.6
2023-03-25T10:49:23.763Z,0.5
2023-03-25T10:52:25.731Z,0.6
2023-03-25T10:55:27.678Z,0.6
2023-03-25T10:58:29.638Z,0.4
2023-03-25T11:01:31.615Z,1
2023-03-25T11:04:33.586Z,1.5
2023-03-25T11:07:35.552Z,1.3
2023-03-25T11:10:37.520Z,1.8
2023-03-25T11:13:39.484Z,0.9
2023-03-25T11:16:41.451Z,1.2
2023-03-25T11:19:43.530Z,0.8
2023-03-25T11:22:45.395Z,0.9
2023-03-25T11:25:47.355Z,1.1
2023-03-25T11:28:49.358Z,2.1
2023-03-25T11:31:51.274Z,1.2
2023-03-25T11:34:53.258Z,1
2023-03-25T11:37:55.247Z,0.8
2023-03-25T11:40:57.237Z,1.2
2023-03-25T11:43:59.166Z,1.3
2023-03-25T11:47:01.124Z,0.8
2023-03-25T11:50:03.100Z,0.9
2023-03-25T11:53:05.072Z,0.9
2023-03-25T11:56:07.027Z,0.9
2023-03-25T11:59:11.811Z,0.7
2023-03-25T12:02:13.764Z,0.9
2023-03-25T12:05:15.723Z,1
2023-03-25T12:08:17.696Z,0.9
2023-03-25T12:11:19.692Z,0.8
2023-03-25T12:14:21.659Z,0.8
2023-03-25T12:17:23.662Z,0.8
2023-03-25T12:20:25.590Z,0.8
2023-03-25T12:23:27.611Z,1.6
2023-03-25T12:26:29.572Z,0.7
2023-03-25T12:29:31.514Z,0.7
2023-03-25T12:32:33.492Z,0.9
2023-03-25T12:35:35.470Z,0.7
2023-03-25T12:38:37.464Z,1
2023-03-25T12:41:39.392Z,0.8
2023-03-25T12:44:41.354Z,0.7
2023-03-25T12:47:43.540Z,0.8
2023-03-25T12:50:45.302Z,0.7
2023-03-25T12:53:47.278Z,0.8
2023-03-25T12:56:49.328Z,0.6
2023-03-25T12:59:51.306Z,0.7
2023-03-25T13:02:53.364Z,1
2023-03-25T13:05:55.369Z,0.7
2023-03-25T13:08:57.188Z,0.6
2023-03-25T13:11:59.153Z,0.7
2023-03-25T13:15:01.107Z,0.8
2023-03-25T13:18:03.121Z,0.7
2023-03-25T13:21:11.817Z,0.5
2023-03-25T13:24:07.058Z,1
2023-03-25T13:27:09.011Z,0.4
2023-03-25T13:30:10.976Z,0.9
2023-03-25T13:33:12.950Z,0.6
2023-03-25T13:36:14.893Z,0.7
2023-03-25T13:39:16.876Z,0.9
2023-03-25T13:42:18.838Z,0.4
2023-03-25T13:45:20.788Z,0.7
2023-03-25T13:48:22.831Z,0.8
2023-03-25T13:51:24.800Z,0.7
2023-03-25T13:54:26.736Z,0.7
2023-03-25T13:57:28.678Z,0.8
2023-03-25T14:00:30.637Z,0.9
2023-03-25T14:03:32.630Z,0.8
2023-03-25T14:06:34.571Z,0.9
2023-03-25T14:09:36.536Z,0.9
2023-03-25T14:12:38.519Z,0.9
2023-03-25T14:15:40.459Z,0.8
2023-03-25T14:18:42.439Z,1
2023-03-25T14:21:44.432Z,0.7
2023-03-25T14:24:46.389Z,0.8
2023-03-25T14:27:48.363Z,0.7
2023-03-25T14:30:50.445Z,0.9
2023-03-25T14:33:52.307Z,0.7
2023-03-25T14:36:54.254Z,0.7
2023-03-25T14:39:57.234Z,0.7
2023-03-25T14:42:58.191Z,0.7
2023-03-25T14:46:00.199Z,0.8
2023-03-25T14:49:02.108Z,0.8
2023-03-25T14:52:04.095Z,0.9
2023-03-25T14:55:06.075Z,0.8
2023-03-25T14:58:08.020Z,0.8
2023-03-25T15:01:09.973Z,0.9
2023-03-25T15:04:11.917Z,1
2023-03-25T15:07:13.877Z,1
2023-03-25T15:10:15.855Z,0.7
2023-03-25T15:13:17.893Z,1
2023-03-25T15:16:19.852Z,0.8
2023-03-25T15:19:21.784Z,1
2023-03-25T15:22:23.760Z,0.5
2023-03-25T15:25:25.683Z,0.9
2023-03-25T15:28:27.639Z,0.8
2023-03-25T15:31:29.625Z,1
2023-03-25T15:34:31.630Z,0.7
2023-03-25T15:37:43.488Z,0.5
2023-03-25T15:40:35.532Z,0.9
2023-03-25T15:43:40.822Z,0.7
2023-03-25T15:46:39.465Z,0.9
2023-03-25T15:49:41.432Z,1.1
2023-03-25T15:52:43.519Z,0.6
2023-03-25T15:55:45.361Z,0.9
2023-03-25T15:58:47.386Z,0.8
2023-03-25T16:01:49.355Z,1.1
2023-03-25T16:04:51.329Z,1.1
2023-03-25T16:07:53.262Z,1
2023-03-25T16:10:55.235Z,0.9
2023-03-25T16:13:57.219Z,1
2023-03-25T16:16:59.173Z,1.2
2023-03-25T16:20:01.342Z,0.9
2023-03-25T16:23:03.221Z,0.7
2023-03-25T16:26:05.188Z,0.9
2023-03-25T16:29:07.161Z,0.7
2023-03-25T16:32:09.089Z,0.8
2023-03-25T16:35:11.104Z,1
2023-03-25T16:38:13.249Z,0.9
2023-03-25T16:41:15.114Z,0.9
2023-03-25T16:44:17.119Z,0.7
2023-03-25T16:47:19.126Z,0.8
2023-03-25T16:50:21.102Z,1
2023-03-25T16:53:23.066Z,1
2023-03-25T16:56:25.067Z,0.9
2023-03-25T16:59:26.966Z,0.9
2023-03-25T17:02:29.018Z,0.6
2023-03-25T17:05:30.905Z,1.1
2023-03-25T17:08:32.932Z,1
2023-03-25T17:11:34.884Z,1
2023-03-25T17:14:36.915Z,0.9
2023-03-25T17:17:39.002Z,1.1
2023-03-25T17:20:41.007Z,0.8
2023-03-25T17:23:42.979Z,0.9
2023-03-25T17:26:44.947Z,0.7
2023-03-25T17:29:46.917Z,0.7
2023-03-25T17:32:48.878Z,0.9
2023-03-25T17:35:50.846Z,1.1
2023-03-25T17:38:52.817Z,0.9
2023-03-25T17:41:54.778Z,0.9
2023-03-25T17:44:56.751Z,0.9
2023-03-25T17:47:58.765Z,0.9
2023-03-25T17:51:00.770Z,0.8
2023-03-25T17:54:02.744Z,0.9
2023-03-25T17:57:04.729Z,0.8
2023-03-25T18:00:06.667Z,1.3
2023-03-25T18:03:08.732Z,0.7
2023-03-25T18:06:10.721Z,1.1
2023-03-25T18:09:12.712Z,1
2023-03-25T18:12:14.675Z,0.8
2023-03-25T18:15:16.641Z,0.9
2023-03-25T18:18:18.617Z,1.2
2023-03-25T18:21:20.599Z,1.2
2023-03-25T18:24:22.695Z,1
2023-03-25T18:27:30.640Z,0.8
2023-03-25T18:30:26.480Z,0.9
2023-03-25T18:33:28.537Z,0.8
2023-03-25T18:36:30.406Z,0.7
2023-03-25T18:39:32.436Z,0.7
2023-03-25T18:42:34.403Z,0.7
2023-03-25T18:45:36.378Z,0.7
2023-03-25T18:48:38.326Z,0.7
2023-03-25T18:51:40.300Z,0.7
2023-03-25T18:54:42.246Z,0.9
2023-03-25T18:57:44.210Z,0.9
2023-03-25T19:00:46.220Z,0.7
2023-03-25T19:03:48.158Z,0.7
2023-03-25T19:06:50.134Z,0.7
2023-03-25T19:09:53.499Z,0.7
2023-03-25T19:12:54.096Z,0.9
2023-03-25T19:15:56.086Z,0.6
2023-03-25T19:18:58.039Z,0.6
2023-03-25T19:22:00.034Z,1
2023-03-25T19:25:01.998Z,0.6
2023-03-25T19:28:03.969Z,0.9
2023-03-25T19:31:05.945Z,0.8
2023-03-25T19:34:07.902Z,0.7
2023-03-25T19:37:09.841Z,1
2023-03-25T19:40:11.834Z,0.4
2023-03-25T19:43:13.804Z,0.5
2023-03-25T19:46:15.778Z,0.6
2023-03-25T19:49:22.931Z,0.7
2023-03-25T19:52:19.667Z,0.5
2023-03-25T19:55:21.666Z,0.7
2023-03-25T19:58:23.612Z,0.6
2023-03-25T20:01:25.631Z,0.5
2023-03-25T20:04:27.559Z,0.6
2023-03-25T20:07:29.538Z,0.6
2023-03-25T20:10:31.475Z,0.6
2023-03-25T20:13:33.425Z,0.6
2023-03-25T20:16:35.428Z,0.7
2023-03-25T20:19:37.366Z,0.5
2023-03-25T20:22:39.368Z,0.7
2023-03-25T20:25:41.337Z,0.7
2023-03-25T20:28:43.320Z,0.7
2023-03-25T20:31:45.342Z,0.6
2023-03-25T20:34:47.270Z,0.8
2023-03-25T20:37:49.258Z,0.8
2023-03-25T20:40:51.202Z,0.7
2023-03-25T20:43:53.254Z,0.8
2023-03-25T20:46:55.151Z,1.1
2023-03-25T20:49:57.112Z,0.7
2023-03-25T20:52:59.233Z,0.7
2023-03-25T20:56:01.182Z,0.8
2023-03-25T20:59:03.146Z,1.1
2023-03-25T21:02:05.157Z,1.1
2023-03-25T21:05:07.073Z,0.7
2023-03-25T21:08:09.045Z,0.7
2023-03-25T21:11:11.009Z,0.8
2023-03-25T21:14:12.992Z,0.8
2023-03-25T21:17:15.134Z,0.6
2023-03-25T21:20:16.915Z,0.7
2023-03-25T21:23:18.940Z,0.8
2023-03-25T21:26:20.888Z,1.1
2023-03-25T21:29:22.844Z,0.8
2023-03-25T21:32:24.824Z,0.7
2023-03-25T21:35:26.777Z,0.8
2023-03-25T21:38:29.534Z,1
2023-03-25T21:41:30.708Z,0.9
2023-03-25T21:44:32.700Z,0.9
2023-03-25T21:47:34.646Z,1.1
2023-03-25T21:50:36.632Z,0.8
2023-03-25T21:53:38.571Z,1
2023-03-25T21:56:40.576Z,0.9
2023-03-25T21:59:42.535Z,0.8
2023-03-25T22:02:44.513Z,0.8
2023-03-25T22:05:46.456Z,0.9
2023-03-25T22:08:48.465Z,0.8
2023-03-25T22:11:50.382Z,0.8
2023-03-25T22:14:52.348Z,1.3
2023-03-25T22:17:54.369Z,0.9
2023-03-25T22:20:56.312Z,1
2023-03-25T22:23:58.253Z,1
2023-03-25T22:27:00.233Z,1.3
2023-03-25T22:30:02.212Z,0.8
2023-03-25T22:33:04.167Z,1
2023-03-25T22:36:06.121Z,1.1
2023-03-25T22:39:08.058Z,1.1
2023-03-25T22:42:10.038Z,1.3
2023-03-25T22:45:11.990Z,1.1
2023-03-25T22:48:13.957Z,1.1
2023-03-25T22:51:15.926Z,1.2
2023-03-25T22:54:17.912Z,1
2023-03-25T22:57:19.833Z,1.1
2023-03-25T23:00:21.784Z,0.7
2023-03-25T23:03:23.882Z,1.1
2023-03-25T23:06:25.896Z,1
2023-03-25T23:09:27.676Z,0.9
2023-03-25T23:12:29.654Z,1.3
2023-03-25T23:15:31.609Z,0.9
2023-03-25T23:18:33.611Z,1
2023-03-25T23:21:35.570Z,1.4
2023-03-25T23:24:37.588Z,0.9
2023-03-25T23:27:39.560Z,0.9
2023-03-25T23:30:41.542Z,0.9
2023-03-25T23:33:43.518Z,1.2
2023-03-25T23:36:45.483Z,0.8
2023-03-25T23:39:47.457Z,1.1
2023-03-25T23:42:49.425Z,0.8
2023-03-25T23:45:51.398Z,1.1
2023-03-25T23:48:53.338Z,0.9
2023-03-25T23:51:55.279Z,1
2023-03-25T23:54:57.253Z,1.3
2023-03-25T23:57:59.237Z,1.3
